West Bend, WI (53095)

4:16 AM CST on January 30, 2015 (GMT -0600)
Prairie Meadow | Change Station
CLOSE
Current Station
Personal Weather Station
Location: West Bend, WI
Elevation: 955 ft
Nearby Weather Stations

Elev 955 ft 43.39 °N, 88.15 °W | Updated 36 minutes ago

Clear
Clear
18.1 °F
Feels Like 11 °F
N
5.2
Wind Variable Wind from NW
Gusts 7.0 mph

Today
High -- | Low -- °F
--% Chance of Precip.
Yesterday
High -- | Low -- °F
Precip. -- in
7:10 AM 5:01 PM
Waxing Gibbous, 81% visible
Pressure 30.42 in
Visibility 10.0 miles
Clouds Clear
Windchill 11 °F
Dew Point 11 °F
Humidity 74%
Rainfall 0.00 in
Snow Depth Not available.
UV 0 out of 12
Pollen .10 out of 12
Air Quality Not available.
Flu Activity Not available.
METAR KETB 300950Z AUTO 31005KT 10SM CLR M08/M13 A3042 RMK AO2

More Conditions Fewer Conditions

Pressure 30.42 in
Visibility 10.0 miles
Clouds Clear
Windchill 11 °F
Dew Point 11 °F
Humidity 74%
Rainfall 0.00 in
Snow Depth Not available.
UV 0 out of 12
Pollen .10 out of 12
Air Quality Not available.
Flu Activity Not available.
METAR KETB 300950Z AUTO 31005KT 10SM CLR M08/M13 A3042 RMK AO2

More Conditions Fewer Conditions

10-Day Weather Forecast

Almanac

Astronomy

Jan. 30, 2015 Rise Set
Actual Time
Civil Twilight
Nautical Twilight
Astronomical Twilight
Moon
Length of Visible Light
Length of Day
Tomorrow will be .
, % of the Moon is Illuminated

Today's Extremes

State Highs State Lows

Community

WunderPhotos

Upload Photos

1,791,736 photos uploaded!

WunderBlogs® & News

Nearby

Air Quality

  Air Quality AQ Index Pollutant
Not available.

Snow Depth

Station Depth Elevation

Earthquake Activity

City Distance Mag. Time & Date
Minimum magnitude displayed is 2.5.

Coastal Water Temperatures

Place Temperature

Nearby Weather Stations